createdAt,value
2023-05-02T00:00:20.652Z,7.80
2023-05-02T00:03:23.070Z,7.70
2023-05-02T00:06:25.165Z,7.70
2023-05-02T00:09:27.082Z,7.60
2023-05-02T00:12:29.021Z,7.60
2023-05-02T00:15:31.019Z,7.50
2023-05-02T00:18:33.318Z,7.50
2023-05-02T00:21:35.261Z,7.40
2023-05-02T00:24:37.174Z,7.40
2023-05-02T00:27:39.009Z,7.40
2023-05-02T00:30:45.197Z,7.30
2023-05-02T00:33:47.101Z,7.30
2023-05-02T00:36:49.284Z,7.30
2023-05-02T00:39:51.150Z,7.30
2023-05-02T00:42:53.560Z,7.30
2023-05-02T00:45:55.852Z,7.20
2023-05-02T00:48:57.713Z,7.20
2023-05-02T00:51:59.645Z,7.20
2023-05-02T00:55:02.167Z,7.20
2023-05-02T00:58:07.129Z,7.10
2023-05-02T01:01:27.948Z,7.20
2023-05-02T01:04:51.514Z,7.10
2023-05-02T01:08:19.557Z,7.10
2023-05-02T01:11:48.865Z,7.10
2023-05-02T01:14:55.722Z,7.10
2023-05-02T01:18:00.964Z,7.00
2023-05-02T01:21:07.294Z,7.00
2023-05-02T01:24:38.876Z,7.00
2023-05-02T01:28:06.817Z,7.00
2023-05-02T01:31:09.466Z,6.90
2023-05-02T01:34:12.058Z,6.90
2023-05-02T01:37:15.548Z,6.90
2023-05-02T01:40:20.654Z,6.80
2023-05-02T01:43:24.557Z,6.80
2023-05-02T01:46:37.282Z,6.80
2023-05-02T01:49:41.048Z,6.80
2023-05-02T01:52:45.251Z,6.70
2023-05-02T01:55:49.212Z,6.70
2023-05-02T01:58:53.227Z,6.70
2023-05-02T02:01:56.608Z,6.70
2023-05-02T02:04:59.799Z,6.70
2023-05-02T02:08:01.653Z,6.70
2023-05-02T02:11:10.152Z,6.70
2023-05-02T02:14:20.032Z,6.70
2023-05-02T02:17:27.115Z,6.60
2023-05-02T02:20:30.116Z,6.60
2023-05-02T02:23:34.935Z,6.60
2023-05-02T02:26:37.607Z,6.50
2023-05-02T02:29:39.406Z,6.50
2023-05-02T02:32:41.498Z,6.50
2023-05-02T02:35:48.270Z,6.50
2023-05-02T02:39:20.332Z,6.50
2023-05-02T02:42:32.579Z,6.50
2023-05-02T02:45:38.431Z,6.50
2023-05-02T02:48:52.129Z,6.50
2023-05-02T02:52:05.545Z,6.50
2023-05-02T02:55:24.413Z,6.40
2023-05-02T02:59:00.611Z,6.40
2023-05-02T03:02:08.340Z,6.40
2023-05-02T03:05:11.777Z,6.30
2023-05-02T03:08:13.828Z,6.30
2023-05-02T03:11:16.435Z,6.30
2023-05-02T03:14:18.359Z,6.20
2023-05-02T03:17:20.320Z,6.30
2023-05-02T03:20:22.340Z,6.30
2023-05-02T03:23:24.683Z,6.30
2023-05-02T03:26:26.977Z,6.30
2023-05-02T03:29:28.867Z,6.30
2023-05-02T03:32:30.964Z,6.30
2023-05-02T03:35:32.899Z,6.30
2023-05-02T03:38:34.910Z,6.40
2023-05-02T03:41:36.791Z,6.40
2023-05-02T03:44:38.781Z,6.20
2023-05-02T03:47:40.971Z,6.40
2023-05-02T03:50:43.602Z,6.40
2023-05-02T03:53:46.245Z,6.40
2023-05-02T03:56:48.028Z,6.40
2023-05-02T03:59:49.834Z,6.40
2023-05-02T04:02:51.961Z,6.40
2023-05-02T04:05:54.039Z,6.40
2023-05-02T04:08:55.881Z,6.40
2023-05-02T04:11:57.651Z,6.40
2023-05-02T04:14:59.475Z,6.40
2023-05-02T04:18:01.658Z,6.40
2023-05-02T04:21:03.723Z,6.40
2023-05-02T04:24:06.609Z,6.50
2023-05-02T04:27:08.615Z,6.50
2023-05-02T04:30:10.977Z,6.50
2023-05-02T04:33:12.896Z,6.50
2023-05-02T04:36:14.853Z,6.50
2023-05-02T04:39:16.634Z,6.60
2023-05-02T04:42:18.467Z,6.60
2023-05-02T04:45:20.303Z,6.60
2023-05-02T04:48:22.145Z,6.60
2023-05-02T04:51:24.195Z,6.70
2023-05-02T04:54:26.035Z,6.70
2023-05-02T04:57:27.911Z,6.70
2023-05-02T05:00:29.847Z,6.80
2023-05-02T05:03:33.215Z,6.80
2023-05-02T05:06:35.122Z,6.90
2023-05-02T05:09:36.954Z,6.90
2023-05-02T05:12:38.757Z,7.00
2023-05-02T05:15:40.685Z,7.00
2023-05-02T05:18:43.171Z,7.10
2023-05-02T05:21:44.929Z,7.20
2023-05-02T05:24:56.395Z,7.20
2023-05-02T05:28:00.478Z,7.30
2023-05-02T05:31:09.861Z,7.40
2023-05-02T05:34:12.980Z,7.50
2023-05-02T05:37:14.851Z,7.60
2023-05-02T05:40:17.358Z,7.60
2023-05-02T05:43:19.307Z,7.70
2023-05-02T05:46:22.608Z,7.70
2023-05-02T05:49:24.601Z,7.70
2023-05-02T05:52:26.746Z,7.90
2023-05-02T05:55:28.933Z,7.80
2023-05-02T05:58:30.751Z,7.80
2023-05-02T06:01:32.638Z,7.70
2023-05-02T06:04:34.489Z,7.70
2023-05-02T06:07:36.272Z,7.70
2023-05-02T06:10:38.125Z,7.70
2023-05-02T06:13:40.001Z,7.70
2023-05-02T06:16:42.144Z,7.70
2023-05-02T06:19:44.072Z,7.70
2023-05-02T06:22:46.220Z,7.70
2023-05-02T06:25:48.030Z,7.70
2023-05-02T06:28:49.872Z,7.70
2023-05-02T06:31:56.708Z,7.70
2023-05-02T06:34:58.512Z,7.70
2023-05-02T06:38:00.471Z,7.80
2023-05-02T06:41:02.262Z,7.80
2023-05-02T06:44:04.102Z,7.90
2023-05-02T06:47:07.504Z,7.90
2023-05-02T06:50:09.906Z,7.90
2023-05-02T06:53:11.961Z,8.00
2023-05-02T06:56:13.922Z,8.00
2023-05-02T06:59:17.377Z,8.10
2023-05-02T07:02:19.737Z,8.10
2023-05-02T07:05:21.583Z,8.10
2023-05-02T07:08:24.146Z,8.20
2023-05-02T07:11:27.838Z,8.30
2023-05-02T07:14:29.688Z,8.40
2023-05-02T07:17:32.143Z,8.40
2023-05-02T07:20:34.026Z,8.50
2023-05-02T07:23:36.048Z,8.70
2023-05-02T07:26:38.094Z,8.80
2023-05-02T07:29:40.419Z,9.10
2023-05-02T07:32:42.268Z,9.30
2023-05-02T07:35:44.417Z,9.60
2023-05-02T07:38:46.109Z,9.90
2023-05-02T07:41:47.940Z,10.20
2023-05-02T07:44:49.731Z,10.50
2023-05-02T07:47:51.502Z,11.10
2023-05-02T07:50:53.688Z,11.50
2023-05-02T07:53:58.462Z,12.10
2023-05-02T07:57:03.053Z,12.40
2023-05-02T08:00:10.316Z,12.80
2023-05-02T08:03:12.449Z,13.20
2023-05-02T08:06:14.494Z,13.60
2023-05-02T08:09:16.714Z,14.00
2023-05-02T08:12:18.719Z,14.30
2023-05-02T08:15:20.863Z,14.80
2023-05-02T08:18:22.629Z,15.20
2023-05-02T08:21:24.476Z,15.60
2023-05-02T08:24:26.402Z,16.00
2023-05-02T08:27:28.368Z,16.40
2023-05-02T08:30:30.241Z,16.60
2023-05-02T08:33:32.152Z,17.00
2023-05-02T08:36:33.998Z,17.30
2023-05-02T08:39:35.975Z,17.50
2023-05-02T08:42:41.387Z,17.70
2023-05-02T08:45:45.274Z,17.90
2023-05-02T08:48:50.037Z,18.10
2023-05-02T08:51:52.793Z,18.30
2023-05-02T08:54:55.813Z,18.40
2023-05-02T08:57:58.748Z,18.60
2023-05-02T09:01:10.101Z,18.70
2023-05-02T09:04:12.173Z,18.80
2023-05-02T09:07:14.256Z,19.00
2023-05-02T09:10:16.212Z,19.20
2023-05-02T09:13:33.838Z,19.30
2023-05-02T09:16:40.513Z,19.50
2023-05-02T09:19:42.377Z,19.60
2023-05-02T09:22:52.480Z,19.70
2023-05-02T09:25:54.338Z,19.70
2023-05-02T09:28:57.035Z,19.70
2023-05-02T09:31:58.981Z,19.40
2023-05-02T09:35:07.493Z,19.10
2023-05-02T09:38:20.517Z,18.80
2023-05-02T09:41:22.368Z,18.50
2023-05-02T09:44:26.269Z,18.30
2023-05-02T09:47:28.227Z,18.30
2023-05-02T09:50:36.945Z,18.10
2023-05-02T09:53:44.907Z,18.10
2023-05-02T09:56:54.318Z,18.00
2023-05-02T09:59:57.708Z,18.00
2023-05-02T10:02:59.912Z,18.00
2023-05-02T10:06:02.462Z,17.90
2023-05-02T10:09:04.480Z,17.80
2023-05-02T10:12:08.470Z,17.70
2023-05-02T10:15:12.561Z,17.70
2023-05-02T10:18:21.290Z,17.60
2023-05-02T10:21:30.085Z,17.50
2023-05-02T10:24:35.557Z,17.30
2023-05-02T10:27:37.886Z,17.10
2023-05-02T10:30:41.216Z,16.90
2023-05-02T10:33:43.707Z,16.70
2023-05-02T10:36:46.780Z,16.50
2023-05-02T10:39:49.164Z,16.30
2023-05-02T10:42:52.455Z,16.10
2023-05-02T10:45:55.033Z,15.80
2023-05-02T10:49:01.022Z,15.60
2023-05-02T10:52:35.413Z,15.50
2023-05-02T10:55:37.411Z,15.30
2023-05-02T10:58:39.841Z,15.20
2023-05-02T11:01:44.469Z,15.20
2023-05-02T11:05:03.118Z,15.10
2023-05-02T11:08:21.361Z,15.10
2023-05-02T11:11:42.697Z,15.20
2023-05-02T11:14:48.125Z,15.30
2023-05-02T11:18:01.036Z,15.40
2023-05-02T11:21:25.721Z,15.60
2023-05-02T11:24:42.225Z,15.80
2023-05-02T11:27:46.279Z,16.00
2023-05-02T11:30:51.315Z,16.20
2023-05-02T11:34:03.488Z,16.30
2023-05-02T11:37:15.744Z,16.20
2023-05-02T11:40:17.786Z,16.10
2023-05-02T11:43:21.530Z,16.00
2023-05-02T11:46:23.621Z,15.80
2023-05-02T11:49:25.623Z,15.60
2023-05-02T11:52:27.768Z,15.50
2023-05-02T11:55:30.153Z,15.40
2023-05-02T11:58:33.895Z,15.30
2023-05-02T12:01:36.895Z,15.30
2023-05-02T12:04:45.324Z,15.30
2023-05-02T12:07:50.421Z,15.40
2023-05-02T12:10:55.345Z,15.50
2023-05-02T12:13:57.964Z,15.60
2023-05-02T12:17:00.961Z,15.90
2023-05-02T12:20:07.979Z,16.10
2023-05-02T12:23:10.494Z,16.30
2023-05-02T12:26:29.402Z,16.30
2023-05-02T12:29:38.972Z,16.30
2023-05-02T12:32:45.386Z,16.30
2023-05-02T12:35:47.767Z,16.20
2023-05-02T12:38:55.097Z,16.10
2023-05-02T12:41:57.726Z,16.10
2023-05-02T12:44:59.542Z,16.10
2023-05-02T12:48:02.493Z,16.10
2023-05-02T12:51:05.067Z,16.20
2023-05-02T12:54:07.357Z,16.40
2023-05-02T12:57:11.231Z,16.60
2023-05-02T13:00:13.974Z,16.70
2023-05-02T13:03:16.023Z,16.90
2023-05-02T13:06:18.682Z,17.00
2023-05-02T13:09:20.848Z,17.20
2023-05-02T13:12:22.542Z,17.30
2023-05-02T13:15:24.445Z,17.50
2023-05-02T13:18:28.036Z,17.50
2023-05-02T13:21:30.221Z,17.50
2023-05-02T13:24:32.018Z,17.40
2023-05-02T13:27:36.753Z,17.40
2023-05-02T13:30:38.743Z,17.30
2023-05-02T13:33:40.756Z,17.30
2023-05-02T13:36:46.395Z,17.20
2023-05-02T13:39:48.539Z,17.30
2023-05-02T13:42:50.287Z,17.30
2023-05-02T13:45:52.762Z,17.20
2023-05-02T13:48:54.695Z,17.30
2023-05-02T13:51:56.835Z,17.30
2023-05-02T13:54:59.053Z,17.30
2023-05-02T13:58:01.612Z,17.40
2023-05-02T14:01:04.372Z,17.40
2023-05-02T14:04:08.705Z,17.30
2023-05-02T14:07:11.474Z,17.30
2023-05-02T14:10:13.315Z,17.20
2023-05-02T14:13:15.200Z,17.20
2023-05-02T14:16:17.089Z,17.10
2023-05-02T14:19:18.880Z,17.10
2023-05-02T14:22:20.788Z,17.00
2023-05-02T14:25:22.649Z,16.80
2023-05-02T14:28:24.542Z,16.60
2023-05-02T14:31:26.433Z,16.60
2023-05-02T14:34:28.333Z,16.50
2023-05-02T14:37:30.274Z,16.40
2023-05-02T14:40:32.238Z,16.30
2023-05-02T14:43:34.073Z,16.30
2023-05-02T14:46:35.893Z,16.20
2023-05-02T14:49:37.767Z,16.10
2023-05-02T14:52:40.155Z,16.10
2023-05-02T14:55:42.071Z,16.00
2023-05-02T14:58:43.966Z,15.90
2023-05-02T15:01:46.031Z,15.90
2023-05-02T15:04:47.947Z,15.80
2023-05-02T15:07:49.684Z,15.80
2023-05-02T15:10:51.511Z,15.80
2023-05-02T15:13:53.372Z,15.90
2023-05-02T15:16:55.805Z,16.00
2023-05-02T15:19:58.609Z,16.00
2023-05-02T15:23:03.793Z,16.10
2023-05-02T15:26:05.816Z,16.20
2023-05-02T15:29:07.599Z,16.30
2023-05-02T15:32:09.503Z,16.30
2023-05-02T15:35:11.740Z,16.40
2023-05-02T15:38:14.209Z,16.50
2023-05-02T15:41:16.080Z,16.60
2023-05-02T15:44:17.913Z,16.70
2023-05-02T15:47:21.458Z,16.70
2023-05-02T15:50:24.046Z,16.70
2023-05-02T15:53:27.516Z,16.60
2023-05-02T15:56:30.560Z,16.60
2023-05-02T15:59:32.447Z,16.60
2023-05-02T16:02:34.330Z,16.50
2023-05-02T16:05:36.655Z,16.50
2023-05-02T16:08:38.491Z,16.50
2023-05-02T16:11:40.794Z,16.40
2023-05-02T16:14:43.824Z,16.40
2023-05-02T16:17:45.690Z,16.30
2023-05-02T16:20:49.792Z,16.20
2023-05-02T16:23:51.814Z,16.10
2023-05-02T16:26:53.689Z,16.10
2023-05-02T16:29:55.549Z,15.90
2023-05-02T16:32:57.432Z,15.90
2023-05-02T16:36:03.816Z,15.80
2023-05-02T16:39:05.764Z,15.70
2023-05-02T16:42:07.994Z,15.60
2023-05-02T16:45:10.006Z,15.50
2023-05-02T16:48:12.339Z,15.40
2023-05-02T16:51:14.128Z,15.40
2023-05-02T16:54:15.939Z,15.30
2023-05-02T16:57:21.514Z,15.30
2023-05-02T17:00:23.506Z,15.20
2023-05-02T17:03:25.382Z,15.20
2023-05-02T17:06:28.048Z,15.10
2023-05-02T17:09:29.879Z,15.10
2023-05-02T17:12:31.727Z,15.00
2023-05-02T17:15:38.502Z,14.90
2023-05-02T17:18:40.309Z,14.80
2023-05-02T17:21:42.251Z,14.70
2023-05-02T17:24:45.843Z,14.60
2023-05-02T17:27:47.698Z,14.50
2023-05-02T17:30:54.408Z,14.40
2023-05-02T17:33:56.426Z,14.20
2023-05-02T17:36:58.201Z,14.10
2023-05-02T17:40:02.117Z,14.00
2023-05-02T17:43:04.449Z,13.90
2023-05-02T17:46:10.232Z,13.80
2023-05-02T17:49:12.190Z,13.70
2023-05-02T17:52:14.140Z,13.70
2023-05-02T17:55:18.312Z,13.60
2023-05-02T17:58:21.317Z,13.50
2023-05-02T18:01:23.168Z,13.40
2023-05-02T18:04:25.506Z,13.30
2023-05-02T18:07:29.937Z,13.20
2023-05-02T18:10:38.212Z,13.00
2023-05-02T18:13:40.020Z,12.90
2023-05-02T18:16:46.939Z,12.80
2023-05-02T18:19:50.326Z,12.70
2023-05-02T18:22:52.416Z,12.60
2023-05-02T18:25:54.283Z,12.50
2023-05-02T18:28:56.083Z,12.40
2023-05-02T18:31:58.098Z,12.30
2023-05-02T18:35:00.647Z,12.20
2023-05-02T18:38:05.483Z,12.10
2023-05-02T18:41:08.974Z,12.00
2023-05-02T18:44:11.998Z,12.00
2023-05-02T18:47:14.038Z,11.90
2023-05-02T18:50:15.983Z,11.80
2023-05-02T18:53:20.372Z,11.70
2023-05-02T18:56:22.565Z,11.60
2023-05-02T18:59:24.390Z,11.50
2023-05-02T19:02:26.702Z,11.30
2023-05-02T19:05:28.650Z,11.20
2023-05-02T19:08:30.540Z,11.20
2023-05-02T19:11:32.559Z,11.10
2023-05-02T19:14:35.914Z,11.10
2023-05-02T19:17:37.808Z,11.00
2023-05-02T19:20:39.758Z,10.90
2023-05-02T19:23:43.043Z,10.90
2023-05-02T19:26:45.219Z,10.80
2023-05-02T19:29:47.648Z,10.80
2023-05-02T19:32:50.064Z,10.80
2023-05-02T19:35:54.269Z,10.70
2023-05-02T19:38:58.334Z,10.60
2023-05-02T19:42:00.360Z,10.60
2023-05-02T19:45:02.595Z,10.60
2023-05-02T19:48:05.363Z,10.50
2023-05-02T19:51:07.555Z,10.50
2023-05-02T19:54:09.405Z,10.40
2023-05-02T19:57:11.209Z,10.40
2023-05-02T20:00:14.411Z,10.40
2023-05-02T20:03:16.881Z,10.30
2023-05-02T20:06:18.806Z,10.20
2023-05-02T20:09:20.999Z,10.20
2023-05-02T20:12:22.910Z,10.10
2023-05-02T20:15:24.871Z,10.10
2023-05-02T20:18:26.754Z,10.10
2023-05-02T20:21:28.763Z,9.90
2023-05-02T20:24:30.705Z,10.00
2023-05-02T20:27:32.750Z,9.90
2023-05-02T20:30:34.604Z,9.80
2023-05-02T20:33:44.676Z,9.70
2023-05-02T20:36:47.708Z,9.60
2023-05-02T20:39:49.551Z,9.60
2023-05-02T20:42:52.228Z,9.50
2023-05-02T20:45:54.100Z,9.40
2023-05-02T20:48:55.934Z,9.40
2023-05-02T20:51:57.860Z,9.30
2023-05-02T20:55:01.636Z,9.30
2023-05-02T20:58:03.405Z,9.20
2023-05-02T21:01:05.704Z,9.20
2023-05-02T21:04:07.578Z,9.20
2023-05-02T21:07:09.512Z,9.10
2023-05-02T21:10:11.834Z,9.10
2023-05-02T21:13:13.934Z,9.00
2023-05-02T21:16:20.321Z,9.00
2023-05-02T21:19:22.268Z,9.00
2023-05-02T21:22:24.215Z,8.90
2023-05-02T21:25:26.054Z,8.90
2023-05-02T21:28:27.952Z,8.90
2023-05-02T21:31:31.741Z,8.80
2023-05-02T21:34:33.737Z,8.80
2023-05-02T21:37:35.774Z,8.70
2023-05-02T21:40:38.589Z,8.70
2023-05-02T21:43:40.778Z,8.60
2023-05-02T21:46:42.834Z,8.50
2023-05-02T21:49:44.628Z,8.50
2023-05-02T21:52:47.168Z,8.40
2023-05-02T21:55:49.032Z,8.30
2023-05-02T21:58:51.382Z,8.30
2023-05-02T22:01:53.237Z,8.30
2023-05-02T22:04:57.859Z,8.20
2023-05-02T22:08:00.732Z,8.10
2023-05-02T22:11:08.057Z,8.10
2023-05-02T22:14:12.905Z,7.90
2023-05-02T22:17:17.243Z,7.90
2023-05-02T22:20:19.264Z,7.90
2023-05-02T22:23:21.329Z,7.80
2023-05-02T22:26:23.834Z,7.80
2023-05-02T22:29:25.643Z,7.80
2023-05-02T22:32:27.370Z,7.70
2023-05-02T22:35:30.181Z,7.60
2023-05-02T22:38:31.927Z,7.50
2023-05-02T22:41:33.729Z,7.50
2023-05-02T22:44:43.594Z,7.40
2023-05-02T22:47:52.863Z,7.40
2023-05-02T22:50:55.186Z,7.20
2023-05-02T22:53:58.366Z,7.20
2023-05-02T22:57:00.361Z,7.20
2023-05-02T23:00:03.552Z,7.10
2023-05-02T23:03:06.164Z,7.00
2023-05-02T23:06:08.297Z,7.00
2023-05-02T23:09:10.260Z,6.90
2023-05-02T23:12:12.626Z,6.80
2023-05-02T23:15:14.355Z,6.80
2023-05-02T23:18:16.200Z,6.70
2023-05-02T23:21:18.045Z,6.70
2023-05-02T23:24:19.829Z,6.60
2023-05-02T23:27:21.566Z,6.60
2023-05-02T23:30:23.521Z,6.60
2023-05-02T23:33:26.030Z,6.50
2023-05-02T23:36:28.012Z,6.50
2023-05-02T23:39:30.643Z,6.40
2023-05-02T23:42:34.330Z,6.40
2023-05-02T23:45:36.274Z,6.30
2023-05-02T23:48:38.060Z,6.20
2023-05-02T23:51:39.869Z,6.30
2023-05-02T23:54:41.807Z,6.20
2023-05-02T23:57:43.588Z,6.20
